TimeEDT,TemperatureF,Dew PointF,Humidity,Sea Level PressureIn,VisibilityMPH,Wind Direction,Wind SpeedMPH,Gust SpeedMPH,PrecipitationIn,Events,Conditions,WindDirDegrees,DateUTC
12:53 AM,75.9,73.9,94,30.15,10.0,East,5.8,-,N/A,,Clear,100,2012-10-04 04:53:00
1:53 AM,75.9,73.9,94,30.13,10.0,East,4.6,-,N/A,,Clear,100,2012-10-04 05:53:00
2:53 AM,77.0,73.0,88,30.11,10.0,East,8.1,-,N/A,,Clear,100,2012-10-04 06:53:00
3:53 AM,77.0,73.0,88,30.11,10.0,East,8.1,-,N/A,,Clear,100,2012-10-04 07:53:00
4:53 AM,77.0,73.9,90,30.10,10.0,East,6.9,-,N/A,,Clear,90,2012-10-04 08:53:00
5:53 AM,77.0,75.0,94,30.12,10.0,East,6.9,-,N/A,,Clear,100,2012-10-04 09:53:00
6:53 AM,77.0,75.0,94,30.12,10.0,East,3.5,-,N/A,,Clear,90,2012-10-04 10:53:00
7:53 AM,78.1,75.9,93,30.14,10.0,East,3.5,-,N/A,,Clear,90,2012-10-04 11:53:00
8:53 AM,79.0,77.0,94,30.15,10.0,ENE,4.6,-,N/A,,Clear,70,2012-10-04 12:53:00
9:53 AM,82.9,77.0,82,30.15,10.0,East,8.1,-,N/A,,Clear,90,2012-10-04 13:53:00
10:53 AM,86.0,75.9,72,30.15,10.0,SE,5.8,-,N/A,,Partly Cloudy,140,2012-10-04 14:53:00
11:18 AM,87.8,75.2,66,30.15,10.0,SSE,9.2,-,N/A,,Mostly Cloudy,150,2012-10-04 15:18:00
11:32 AM,87.8,75.2,66,30.15,10.0,Variable,5.8,-,N/A,,Scattered Clouds,0,2012-10-04 15:32:00
11:39 AM,87.8,75.2,66,30.15,10.0,SE,5.8,-,N/A,,Mostly Cloudy,140,2012-10-04 15:39:00
11:53 AM,87.1,75.9,69,30.15,10.0,ESE,6.9,-,N/A,,Mostly Cloudy,110,2012-10-04 15:53:00
12:01 PM,87.8,75.2,66,30.15,10.0,ESE,4.6,-,N/A,,Mostly Cloudy,120,2012-10-04 16:01:00
12:53 PM,90.0,73.9,59,30.14,10.0,ESE,8.1,-,N/A,,Partly Cloudy,120,2012-10-04 16:53:00
1:53 PM,90.0,72.0,55,30.10,10.0,SSE,6.9,-,N/A,,Partly Cloudy,150,2012-10-04 17:53:00
2:53 PM,84.0,75.0,74,30.09,10.0,South,6.9,18.4,N/A,,Overcast,180,2012-10-04 18:53:00
3:46 PM,75.2,71.6,89,30.09,1.5,WSW,10.4,-,0.03,Rain,Rain,250,2012-10-04 19:46:00
3:53 PM,75.9,73.0,91,30.09,1.0,West,8.1,-,0.16,Rain,Light Rain,280,2012-10-04 19:53:00
3:58 PM,75.2,73.4,94,30.08,4.0,Calm,Calm,-,0.00,Rain,Light Rain,0,2012-10-04 19:58:00
4:53 PM,77.0,73.9,90,30.09,10.0,NNW,3.5,-,0.00,,Clear,340,2012-10-04 20:53:00
6:53 PM,77.0,73.0,88,30.09,10.0,NE,5.8,-,N/A,,Clear,40,2012-10-04 22:53:00
7:53 PM,77.0,73.0,88,30.09,10.0,NNE,6.9,-,N/A,,Clear,30,2012-10-04 23:53:00
8:53 PM,77.0,73.9,90,30.12,10.0,North,6.9,-,N/A,,Clear,360,2012-10-05 00:53:00
9:53 PM,75.9,73.0,91,30.13,10.0,NE,6.9,-,N/A,,Clear,50,2012-10-05 01:53:00
10:53 PM,75.9,73.0,91,30.13,10.0,ENE,8.1,-,N/A,,Clear,60,2012-10-05 02:53:00
11:53 PM,75.9,73.0,91,30.12,10.0,ENE,6.9,-,N/A,,Clear,70,2012-10-05 03:53:00